sensor_id;sensor_type;location;lat;lon;timestamp;P1;durP1;ratioP1;P2;durP2;ratioP2
52057;SDS011;38063;53.210;6.504;2023-08-31T00:01:38;4.95;;;2.15;;
52057;SDS011;38063;53.210;6.504;2023-08-31T00:04:04;5.82;;;1.58;;
52057;SDS011;38063;53.210;6.504;2023-08-31T00:06:33;3.28;;;1.85;;
52057;SDS011;38063;53.210;6.504;2023-08-31T00:08:59;4.45;;;1.50;;
52057;SDS011;38063;53.210;6.504;2023-08-31T00:11:24;4.28;;;1.98;;
52057;SDS011;38063;53.210;6.504;2023-08-31T00:13:51;2.67;;;1.60;;
52057;SDS011;38063;53.210;6.504;2023-08-31T00:16:17;3.30;;;1.73;;
52057;SDS011;38063;53.210;6.504;2023-08-31T00:18:49;6.43;;;1.80;;
52057;SDS011;38063;53.210;6.504;2023-08-31T00:21:15;3.47;;;1.80;;
52057;SDS011;38063;53.210;6.504;2023-08-31T00:23:40;5.22;;;1.77;;
52057;SDS011;38063;53.210;6.504;2023-08-31T00:26:06;4.53;;;1.92;;
52057;SDS011;38063;53.210;6.504;2023-08-31T00:28:32;2.30;;;1.58;;
52057;SDS011;38063;53.210;6.504;2023-08-31T00:31:00;4.07;;;1.63;;
52057;SDS011;38063;53.210;6.504;2023-08-31T00:33:29;2.67;;;1.50;;
52057;SDS011;38063;53.210;6.504;2023-08-31T00:35:55;9.57;;;2.13;;
52057;SDS011;38063;53.210;6.504;2023-08-31T00:38:26;3.58;;;1.50;;
52057;SDS011;38063;53.210;6.504;2023-08-31T00:40:52;5.05;;;1.88;;
52057;SDS011;38063;53.210;6.504;2023-08-31T00:43:19;5.75;;;2.13;;
52057;SDS011;38063;53.210;6.504;2023-08-31T00:45:45;2.67;;;1.92;;
52057;SDS011;38063;53.210;6.504;2023-08-31T00:48:17;6.60;;;2.30;;
52057;SDS011;38063;53.210;6.504;2023-08-31T00:50:44;4.85;;;1.95;;
52057;SDS011;38063;53.210;6.504;2023-08-31T00:53:10;4.28;;;2.70;;
52057;SDS011;38063;53.210;6.504;2023-08-31T00:55:36;7.25;;;2.47;;
52057;SDS011;38063;53.210;6.504;2023-08-31T00:58:04;6.70;;;2.83;;
52057;SDS011;38063;53.210;6.504;2023-08-31T01:03:12;5.80;;;2.83;;
52057;SDS011;38063;53.210;6.504;2023-08-31T01:08:29;6.75;;;2.70;;
52057;SDS011;38063;53.210;6.504;2023-08-31T01:11:11;6.10;;;2.35;;
52057;SDS011;38063;53.210;6.504;2023-08-31T01:13:44;8.20;;;3.20;;
52057;SDS011;38063;53.210;6.504;2023-08-31T01:16:16;5.13;;;1.95;;
52057;SDS011;38063;53.210;6.504;2023-08-31T01:18:42;4.72;;;2.40;;
52057;SDS011;38063;53.210;6.504;2023-08-31T01:21:12;5.53;;;2.38;;
52057;SDS011;38063;53.210;6.504;2023-08-31T01:23:55;6.82;;;2.60;;
52057;SDS011;38063;53.210;6.504;2023-08-31T01:26:23;4.60;;;2.17;;
52057;SDS011;38063;53.210;6.504;2023-08-31T01:28:50;4.30;;;2.17;;
52057;SDS011;38063;53.210;6.504;2023-08-31T01:31:17;4.03;;;2.05;;
52057;SDS011;38063;53.210;6.504;2023-08-31T01:33:43;6.15;;;2.30;;
52057;SDS011;38063;53.210;6.504;2023-08-31T01:36:12;3.42;;;2.25;;
52057;SDS011;38063;53.210;6.504;2023-08-31T01:38:45;4.43;;;2.08;;
52057;SDS011;38063;53.210;6.504;2023-08-31T01:41:16;4.72;;;2.05;;
52057;SDS011;38063;53.210;6.504;2023-08-31T01:43:44;6.40;;;2.30;;
52057;SDS011;38063;53.210;6.504;2023-08-31T01:46:13;6.85;;;2.17;;
52057;SDS011;38063;53.210;6.504;2023-08-31T01:48:40;2.60;;;1.58;;
52057;SDS011;38063;53.210;6.504;2023-08-31T01:51:07;4.22;;;2.03;;
52057;SDS011;38063;53.210;6.504;2023-08-31T01:53:33;9.07;;;1.85;;
52057;SDS011;38063;53.210;6.504;2023-08-31T01:55:59;5.80;;;2.05;;
52057;SDS011;38063;53.210;6.504;2023-08-31T01:58:25;2.65;;;1.85;;
52057;SDS011;38063;53.210;6.504;2023-08-31T02:00:51;4.40;;;1.73;;
52057;SDS011;38063;53.210;6.504;2023-08-31T02:03:16;5.28;;;1.80;;
52057;SDS011;38063;53.210;6.504;2023-08-31T02:05:42;4.60;;;1.63;;
52057;SDS011;38063;53.210;6.504;2023-08-31T02:08:07;5.43;;;1.80;;
52057;SDS011;38063;53.210;6.504;2023-08-31T02:10:33;3.63;;;1.73;;
52057;SDS011;38063;53.210;6.504;2023-08-31T02:12:59;3.83;;;1.70;;
52057;SDS011;38063;53.210;6.504;2023-08-31T02:15:25;4.30;;;1.92;;
52057;SDS011;38063;53.210;6.504;2023-08-31T02:17:51;2.97;;;1.73;;
52057;SDS011;38063;53.210;6.504;2023-08-31T02:20:18;4.32;;;1.88;;
52057;SDS011;38063;53.210;6.504;2023-08-31T02:22:45;5.20;;;1.55;;
52057;SDS011;38063;53.210;6.504;2023-08-31T02:25:11;3.55;;;1.30;;
52057;SDS011;38063;53.210;6.504;2023-08-31T02:27:37;4.13;;;1.45;;
52057;SDS011;38063;53.210;6.504;2023-08-31T02:30:04;4.57;;;1.40;;
52057;SDS011;38063;53.210;6.504;2023-08-31T02:32:30;3.63;;;1.33;;
52057;SDS011;38063;53.210;6.504;2023-08-31T02:34:56;2.28;;;1.20;;
52057;SDS011;38063;53.210;6.504;2023-08-31T02:37:21;4.28;;;1.73;;
52057;SDS011;38063;53.210;6.504;2023-08-31T02:39:47;3.05;;;1.30;;
52057;SDS011;38063;53.210;6.504;2023-08-31T02:42:13;4.22;;;1.27;;
52057;SDS011;38063;53.210;6.504;2023-08-31T02:44:39;4.55;;;1.50;;
52057;SDS011;38063;53.210;6.504;2023-08-31T02:47:05;2.88;;;1.30;;
52057;SDS011;38063;53.210;6.504;2023-08-31T02:49:31;4.78;;;1.60;;
52057;SDS011;38063;53.210;6.504;2023-08-31T02:51:57;2.38;;;1.50;;
52057;SDS011;38063;53.210;6.504;2023-08-31T02:54:22;3.65;;;1.50;;
52057;SDS011;38063;53.210;6.504;2023-08-31T02:56:48;2.63;;;1.63;;
52057;SDS011;38063;53.210;6.504;2023-08-31T02:59:13;2.92;;;1.27;;
52057;SDS011;38063;53.210;6.504;2023-08-31T03:01:39;4.53;;;1.02;;
52057;SDS011;38063;53.210;6.504;2023-08-31T03:04:05;3.58;;;1.17;;
52057;SDS011;38063;53.210;6.504;2023-08-31T03:06:32;2.47;;;1.10;;
52057;SDS011;38063;53.210;6.504;2023-08-31T03:08:58;1.60;;;1.00;;
52057;SDS011;38063;53.210;6.504;2023-08-31T03:11:23;1.88;;;1.00;;
52057;SDS011;38063;53.210;6.504;2023-08-31T03:13:49;2.58;;;1.27;;
52057;SDS011;38063;53.210;6.504;2023-08-31T03:16:15;4.40;;;1.55;;
52057;SDS011;38063;53.210;6.504;2023-08-31T03:18:40;3.45;;;1.20;;
52057;SDS011;38063;53.210;6.504;2023-08-31T03:21:06;1.95;;;1.20;;
52057;SDS011;38063;53.210;6.504;2023-08-31T03:23:33;2.95;;;1.20;;
52057;SDS011;38063;53.210;6.504;2023-08-31T03:25:58;3.67;;;1.10;;
52057;SDS011;38063;53.210;6.504;2023-08-31T03:28:24;2.28;;;1.10;;
52057;SDS011;38063;53.210;6.504;2023-08-31T03:30:56;2.10;;;1.02;;
52057;SDS011;38063;53.210;6.504;2023-08-31T03:33:22;3.20;;;1.08;;
52057;SDS011;38063;53.210;6.504;2023-08-31T03:35:48;4.20;;;1.00;;
52057;SDS011;38063;53.210;6.504;2023-08-31T03:38:13;1.77;;;0.90;;
52057;SDS011;38063;53.210;6.504;2023-08-31T03:40:39;3.85;;;1.30;;
52057;SDS011;38063;53.210;6.504;2023-08-31T03:43:04;1.45;;;0.80;;
52057;SDS011;38063;53.210;6.504;2023-08-31T03:45:30;3.13;;;1.00;;
52057;SDS011;38063;53.210;6.504;2023-08-31T03:47:56;2.92;;;1.23;;
52057;SDS011;38063;53.210;6.504;2023-08-31T03:50:21;4.38;;;1.45;;
52057;SDS011;38063;53.210;6.504;2023-08-31T03:52:47;1.90;;;1.00;;
52057;SDS011;38063;53.210;6.504;2023-08-31T03:55:13;2.55;;;0.95;;
52057;SDS011;38063;53.210;6.504;2023-08-31T03:57:38;3.80;;;1.00;;
52057;SDS011;38063;53.210;6.504;2023-08-31T04:00:04;2.78;;;0.90;;
52057;SDS011;38063;53.210;6.504;2023-08-31T04:02:37;3.65;;;1.08;;
52057;SDS011;38063;53.210;6.504;2023-08-31T04:05:03;2.72;;;1.05;;
52057;SDS011;38063;53.210;6.504;2023-08-31T04:07:31;2.15;;;1.08;;
52057;SDS011;38063;53.210;6.504;2023-08-31T04:09:57;3.70;;;1.10;;
52057;SDS011;38063;53.210;6.504;2023-08-31T04:12:24;2.92;;;1.10;;
52057;SDS011;38063;53.210;6.504;2023-08-31T04:14:49;3.35;;;0.85;;
52057;SDS011;38063;53.210;6.504;2023-08-31T04:17:15;2.45;;;0.90;;
52057;SDS011;38063;53.210;6.504;2023-08-31T04:19:40;4.22;;;1.13;;
52057;SDS011;38063;53.210;6.504;2023-08-31T04:22:06;2.38;;;1.00;;
52057;SDS011;38063;53.210;6.504;2023-08-31T04:24:32;4.68;;;1.23;;
52057;SDS011;38063;53.210;6.504;2023-08-31T04:26:58;4.22;;;1.38;;
52057;SDS011;38063;53.210;6.504;2023-08-31T04:29:24;1.52;;;1.17;;
52057;SDS011;38063;53.210;6.504;2023-08-31T04:31:50;3.47;;;1.23;;
52057;SDS011;38063;53.210;6.504;2023-08-31T04:34:15;1.42;;;1.00;;
52057;SDS011;38063;53.210;6.504;2023-08-31T04:36:41;3.25;;;1.20;;
52057;SDS011;38063;53.210;6.504;2023-08-31T04:39:06;3.13;;;1.17;;
52057;SDS011;38063;53.210;6.504;2023-08-31T04:41:32;5.55;;;1.33;;
52057;SDS011;38063;53.210;6.504;2023-08-31T04:43:58;4.82;;;1.25;;
52057;SDS011;38063;53.210;6.504;2023-08-31T04:46:24;2.78;;;1.10;;
52057;SDS011;38063;53.210;6.504;2023-08-31T04:48:49;3.55;;;1.30;;
52057;SDS011;38063;53.210;6.504;2023-08-31T04:51:31;6.15;;;2.00;;
52057;SDS011;38063;53.210;6.504;2023-08-31T04:53:59;5.13;;;1.60;;
52057;SDS011;38063;53.210;6.504;2023-08-31T04:56:28;2.97;;;1.58;;
52057;SDS011;38063;53.210;6.504;2023-08-31T04:58:55;2.15;;;1.70;;
52057;SDS011;38063;53.210;6.504;2023-08-31T05:01:21;5.75;;;1.73;;
52057;SDS011;38063;53.210;6.504;2023-08-31T05:03:46;5.70;;;1.80;;
52057;SDS011;38063;53.210;6.504;2023-08-31T05:06:12;5.03;;;2.08;;
52057;SDS011;38063;53.210;6.504;2023-08-31T05:08:38;4.68;;;2.00;;
52057;SDS011;38063;53.210;6.504;2023-08-31T05:11:03;4.38;;;2.17;;
52057;SDS011;38063;53.210;6.504;2023-08-31T05:13:29;2.83;;;2.22;;
52057;SDS011;38063;53.210;6.504;2023-08-31T05:15:55;4.10;;;1.90;;
52057;SDS011;38063;53.210;6.504;2023-08-31T05:18:20;4.85;;;1.90;;
52057;SDS011;38063;53.210;6.504;2023-08-31T05:20:46;4.72;;;2.20;;
52057;SDS011;38063;53.210;6.504;2023-08-31T05:23:13;6.00;;;2.15;;
52057;SDS011;38063;53.210;6.504;2023-08-31T05:25:43;7.78;;;2.22;;
52057;SDS011;38063;53.210;6.504;2023-08-31T05:28:09;6.80;;;1.98;;
52057;SDS011;38063;53.210;6.504;2023-08-31T05:30:35;7.05;;;2.45;;
52057;SDS011;38063;53.210;6.504;2023-08-31T05:33:01;6.55;;;2.22;;
52057;SDS011;38063;53.210;6.504;2023-08-31T05:35:26;4.18;;;2.10;;
52057;SDS011;38063;53.210;6.504;2023-08-31T05:37:52;2.90;;;1.80;;
52057;SDS011;38063;53.210;6.504;2023-08-31T05:40:18;5.80;;;2.20;;
52057;SDS011;38063;53.210;6.504;2023-08-31T05:42:44;6.38;;;2.10;;
52057;SDS011;38063;53.210;6.504;2023-08-31T05:45:09;8.63;;;2.38;;
52057;SDS011;38063;53.210;6.504;2023-08-31T05:47:35;5.40;;;1.95;;
52057;SDS011;38063;53.210;6.504;2023-08-31T05:50:01;5.32;;;2.00;;
52057;SDS011;38063;53.210;6.504;2023-08-31T05:52:28;4.90;;;2.38;;
52057;SDS011;38063;53.210;6.504;2023-08-31T05:54:53;7.35;;;2.22;;
52057;SDS011;38063;53.210;6.504;2023-08-31T05:57:19;8.15;;;1.95;;
52057;SDS011;38063;53.210;6.504;2023-08-31T05:59:46;5.03;;;2.17;;
52057;SDS011;38063;53.210;6.504;2023-08-31T06:02:12;5.32;;;2.10;;
52057;SDS011;38063;53.210;6.504;2023-08-31T06:04:38;3.95;;;2.28;;
52057;SDS011;38063;53.210;6.504;2023-08-31T06:07:04;6.15;;;2.10;;
52057;SDS011;38063;53.210;6.504;2023-08-31T06:09:32;5.40;;;2.40;;
52057;SDS011;38063;53.210;6.504;2023-08-31T06:11:58;5.25;;;2.22;;
52057;SDS011;38063;53.210;6.504;2023-08-31T06:14:24;6.80;;;2.20;;
52057;SDS011;38063;53.210;6.504;2023-08-31T06:16:49;6.85;;;2.47;;
52057;SDS011;38063;53.210;6.504;2023-08-31T06:19:15;6.68;;;2.00;;
52057;SDS011;38063;53.210;6.504;2023-08-31T06:21:41;4.50;;;2.22;;
52057;SDS011;38063;53.210;6.504;2023-08-31T06:24:07;6.15;;;2.03;;
52057;SDS011;38063;53.210;6.504;2023-08-31T06:26:35;7.13;;;2.20;;
52057;SDS011;38063;53.210;6.504;2023-08-31T06:29:01;6.25;;;2.03;;
52057;SDS011;38063;53.210;6.504;2023-08-31T06:31:28;4.43;;;1.65;;
52057;SDS011;38063;53.210;6.504;2023-08-31T06:33:54;4.00;;;1.75;;
52057;SDS011;38063;53.210;6.504;2023-08-31T06:36:20;5.30;;;2.17;;
52057;SDS011;38063;53.210;6.504;2023-08-31T06:38:46;5.80;;;1.60;;
52057;SDS011;38063;53.210;6.504;2023-08-31T06:41:11;5.18;;;1.83;;
52057;SDS011;38063;53.210;6.504;2023-08-31T06:43:37;4.72;;;1.63;;
52057;SDS011;38063;53.210;6.504;2023-08-31T06:46:03;5.60;;;1.60;;
52057;SDS011;38063;53.210;6.504;2023-08-31T06:48:28;4.55;;;1.77;;
52057;SDS011;38063;53.210;6.504;2023-08-31T06:50:54;5.75;;;1.50;;
52057;SDS011;38063;53.210;6.504;2023-08-31T06:53:21;7.82;;;1.48;;
52057;SDS011;38063;53.210;6.504;2023-08-31T06:55:47;5.03;;;1.20;;
52057;SDS011;38063;53.210;6.504;2023-08-31T06:58:13;4.72;;;1.55;;
52057;SDS011;38063;53.210;6.504;2023-08-31T07:00:38;4.25;;;1.40;;
52057;SDS011;38063;53.210;6.504;2023-08-31T07:03:04;7.57;;;1.58;;
52057;SDS011;38063;53.210;6.504;2023-08-31T07:05:33;4.03;;;1.27;;
52057;SDS011;38063;53.210;6.504;2023-08-31T07:08:02;2.65;;;1.30;;
52057;SDS011;38063;53.210;6.504;2023-08-31T07:10:28;3.15;;;1.27;;
52057;SDS011;38063;53.210;6.504;2023-08-31T07:12:53;3.97;;;1.25;;
52057;SDS011;38063;53.210;6.504;2023-08-31T07:15:19;3.80;;;1.00;;
52057;SDS011;38063;53.210;6.504;2023-08-31T07:17:45;4.05;;;0.90;;
52057;SDS011;38063;53.210;6.504;2023-08-31T07:20:11;4.07;;;1.00;;
52057;SDS011;38063;53.210;6.504;2023-08-31T07:22:37;5.18;;;1.20;;
52057;SDS011;38063;53.210;6.504;2023-08-31T07:25:03;4.00;;;0.90;;
52057;SDS011;38063;53.210;6.504;2023-08-31T07:27:29;3.67;;;0.90;;
52057;SDS011;38063;53.210;6.504;2023-08-31T07:29:55;4.03;;;1.00;;
52057;SDS011;38063;53.210;6.504;2023-08-31T07:32:21;2.10;;;0.73;;
52057;SDS011;38063;53.210;6.504;2023-08-31T07:34:47;6.72;;;1.05;;
52057;SDS011;38063;53.210;6.504;2023-08-31T07:37:13;4.85;;;1.13;;
52057;SDS011;38063;53.210;6.504;2023-08-31T07:39:38;4.70;;;0.88;;
52057;SDS011;38063;53.210;6.504;2023-08-31T07:42:05;4.03;;;1.17;;
52057;SDS011;38063;53.210;6.504;2023-08-31T07:44:30;3.83;;;0.80;;
52057;SDS011;38063;53.210;6.504;2023-08-31T07:46:56;3.20;;;0.77;;
52057;SDS011;38063;53.210;6.504;2023-08-31T07:49:22;3.33;;;0.70;;
52057;SDS011;38063;53.210;6.504;2023-08-31T07:51:48;1.80;;;0.80;;
52057;SDS011;38063;53.210;6.504;2023-08-31T07:54:20;6.25;;;0.85;;
52057;SDS011;38063;53.210;6.504;2023-08-31T07:56:46;3.47;;;0.77;;
52057;SDS011;38063;53.210;6.504;2023-08-31T07:59:12;4.38;;;0.80;;
52057;SDS011;38063;53.210;6.504;2023-08-31T08:01:37;4.25;;;0.80;;
52057;SDS011;38063;53.210;6.504;2023-08-31T08:04:03;1.75;;;0.65;;
52057;SDS011;38063;53.210;6.504;2023-08-31T08:06:29;1.92;;;0.73;;
52057;SDS011;38063;53.210;6.504;2023-08-31T08:08:54;4.97;;;0.80;;
52057;SDS011;38063;53.210;6.504;2023-08-31T08:11:21;6.45;;;1.05;;
52057;SDS011;38063;53.210;6.504;2023-08-31T08:13:47;4.40;;;0.70;;
52057;SDS011;38063;53.210;6.504;2023-08-31T08:16:13;1.65;;;0.60;;
52057;SDS011;38063;53.210;6.504;2023-08-31T08:18:39;2.70;;;0.50;;
52057;SDS011;38063;53.210;6.504;2023-08-31T08:21:06;4.72;;;0.70;;
52057;SDS011;38063;53.210;6.504;2023-08-31T08:23:31;3.88;;;0.60;;
52057;SDS011;38063;53.210;6.504;2023-08-31T08:25:57;2.83;;;0.60;;
52057;SDS011;38063;53.210;6.504;2023-08-31T08:28:24;1.23;;;0.50;;
52057;SDS011;38063;53.210;6.504;2023-08-31T08:30:51;1.15;;;0.50;;
52057;SDS011;38063;53.210;6.504;2023-08-31T08:33:17;0.98;;;0.50;;
52057;SDS011;38063;53.210;6.504;2023-08-31T08:35:42;2.95;;;0.40;;
52057;SDS011;38063;53.210;6.504;2023-08-31T08:38:08;3.53;;;0.63;;
52057;SDS011;38063;53.210;6.504;2023-08-31T08:40:34;2.30;;;0.60;;
52057;SDS011;38063;53.210;6.504;2023-08-31T08:43:00;4.53;;;0.70;;
52057;SDS011;38063;53.210;6.504;2023-08-31T08:45:26;4.20;;;0.70;;
52057;SDS011;38063;53.210;6.504;2023-08-31T08:48:01;1.52;;;0.50;;
52057;SDS011;38063;53.210;6.504;2023-08-31T08:50:28;4.22;;;0.65;;
52057;SDS011;38063;53.210;6.504;2023-08-31T08:52:54;1.88;;;0.60;;
52057;SDS011;38063;53.210;6.504;2023-08-31T08:55:20;3.05;;;0.50;;
52057;SDS011;38063;53.210;6.504;2023-08-31T08:57:47;2.88;;;0.50;;
52057;SDS011;38063;53.210;6.504;2023-08-31T09:00:12;2.97;;;0.50;;
52057;SDS011;38063;53.210;6.504;2023-08-31T09:02:38;1.10;;;0.60;;
52057;SDS011;38063;53.210;6.504;2023-08-31T09:05:04;1.20;;;0.30;;
52057;SDS011;38063;53.210;6.504;2023-08-31T09:07:30;0.98;;;0.40;;
52057;SDS011;38063;53.210;6.504;2023-08-31T09:10:03;3.50;;;0.50;;
52057;SDS011;38063;53.210;6.504;2023-08-31T09:12:29;1.92;;;0.60;;
52057;SDS011;38063;53.210;6.504;2023-08-31T09:14:59;3.15;;;0.57;;
52057;SDS011;38063;53.210;6.504;2023-08-31T09:17:25;2.70;;;0.77;;
52057;SDS011;38063;53.210;6.504;2023-08-31T09:20:00;1.98;;;0.50;;
52057;SDS011;38063;53.210;6.504;2023-08-31T09:22:31;2.88;;;0.52;;
52057;SDS011;38063;53.210;6.504;2023-08-31T09:24:58;1.92;;;0.60;;
52057;SDS011;38063;53.210;6.504;2023-08-31T09:27:23;1.95;;;0.50;;
52057;SDS011;38063;53.210;6.504;2023-08-31T09:29:50;1.65;;;0.63;;
52057;SDS011;38063;53.210;6.504;2023-08-31T09:32:19;1.55;;;0.55;;
52057;SDS011;38063;53.210;6.504;2023-08-31T09:34:45;1.90;;;0.65;;
52057;SDS011;38063;53.210;6.504;2023-08-31T09:37:11;3.95;;;0.60;;
52057;SDS011;38063;53.210;6.504;2023-08-31T09:39:37;2.60;;;0.60;;
52057;SDS011;38063;53.210;6.504;2023-08-31T09:42:04;2.92;;;0.50;;
52057;SDS011;38063;53.210;6.504;2023-08-31T09:44:31;2.35;;;0.90;;
52057;SDS011;38063;53.210;6.504;2023-08-31T09:46:57;3.08;;;0.70;;
52057;SDS011;38063;53.210;6.504;2023-08-31T09:49:23;3.50;;;0.75;;
52057;SDS011;38063;53.210;6.504;2023-08-31T09:51:50;1.63;;;0.68;;
52057;SDS011;38063;53.210;6.504;2023-08-31T09:54:17;1.95;;;0.73;;
52057;SDS011;38063;53.210;6.504;2023-08-31T09:56:45;2.47;;;0.75;;
52057;SDS011;38063;53.210;6.504;2023-08-31T09:59:12;5.32;;;0.70;;
52057;SDS011;38063;53.210;6.504;2023-08-31T10:01:39;4.45;;;0.90;;
52057;SDS011;38063;53.210;6.504;2023-08-31T10:04:05;1.13;;;0.50;;
52057;SDS011;38063;53.210;6.504;2023-08-31T10:06:34;3.40;;;0.77;;
52057;SDS011;38063;53.210;6.504;2023-08-31T10:09:09;4.25;;;0.82;;
52057;SDS011;38063;53.210;6.504;2023-08-31T10:11:35;3.38;;;0.70;;
52057;SDS011;38063;53.210;6.504;2023-08-31T10:14:01;5.25;;;0.90;;
52057;SDS011;38063;53.210;6.504;2023-08-31T10:16:28;6.85;;;0.80;;
52057;SDS011;38063;53.210;6.504;2023-08-31T10:18:55;2.50;;;0.80;;
52057;SDS011;38063;53.210;6.504;2023-08-31T10:21:21;2.15;;;0.68;;
52057;SDS011;38063;53.210;6.504;2023-08-31T10:23:48;5.65;;;0.80;;
52057;SDS011;38063;53.210;6.504;2023-08-31T10:29:24;2.85;;;0.80;;
52057;SDS011;38063;53.210;6.504;2023-08-31T10:31:52;2.17;;;0.43;;
52057;SDS011;38063;53.210;6.504;2023-08-31T10:34:18;3.67;;;0.75;;
52057;SDS011;38063;53.210;6.504;2023-08-31T10:37:19;5.60;;;0.70;;
52057;SDS011;38063;53.210;6.504;2023-08-31T10:39:45;3.97;;;0.80;;
52057;SDS011;38063;53.210;6.504;2023-08-31T10:42:11;2.45;;;0.70;;
52057;SDS011;38063;53.210;6.504;2023-08-31T10:44:36;4.07;;;0.82;;
52057;SDS011;38063;53.210;6.504;2023-08-31T10:47:05;1.83;;;0.60;;
52057;SDS011;38063;53.210;6.504;2023-08-31T10:49:31;3.72;;;0.80;;
52057;SDS011;38063;53.210;6.504;2023-08-31T10:54:45;2.17;;;0.90;;
52057;SDS011;38063;53.210;6.504;2023-08-31T10:57:11;3.20;;;0.82;;
52057;SDS011;38063;53.210;6.504;2023-08-31T11:02:27;4.30;;;1.02;;
52057;SDS011;38063;53.210;6.504;2023-08-31T11:05:05;3.35;;;0.90;;
52057;SDS011;38063;53.210;6.504;2023-08-31T11:07:34;2.05;;;0.63;;
52057;SDS011;38063;53.210;6.504;2023-08-31T11:10:08;10.70;;;2.15;;
52057;SDS011;38063;53.210;6.504;2023-08-31T11:12:54;1.42;;;0.63;;
52057;SDS011;38063;53.210;6.504;2023-08-31T11:15:23;3.72;;;0.80;;
52057;SDS011;38063;53.210;6.504;2023-08-31T11:17:51;3.97;;;1.00;;
52057;SDS011;38063;53.210;6.504;2023-08-31T11:20:18;2.83;;;0.70;;
52057;SDS011;38063;53.210;6.504;2023-08-31T11:22:45;2.60;;;0.80;;
52057;SDS011;38063;53.210;6.504;2023-08-31T11:25:14;8.80;;;2.55;;
52057;SDS011;38063;53.210;6.504;2023-08-31T11:27:41;3.88;;;0.80;;
52057;SDS011;38063;53.210;6.504;2023-08-31T11:30:16;5.47;;;0.85;;
52057;SDS011;38063;53.210;6.504;2023-08-31T11:32:45;2.72;;;0.80;;
52057;SDS011;38063;53.210;6.504;2023-08-31T11:35:14;3.33;;;0.80;;
52057;SDS011;38063;53.210;6.504;2023-08-31T11:37:41;1.52;;;0.80;;
52057;SDS011;38063;53.210;6.504;2023-08-31T11:40:13;4.53;;;0.93;;
52057;SDS011;38063;53.210;6.504;2023-08-31T11:42:40;4.43;;;0.90;;
52057;SDS011;38063;53.210;6.504;2023-08-31T11:45:06;5.63;;;1.48;;
52057;SDS011;38063;53.210;6.504;2023-08-31T11:47:32;2.72;;;0.70;;
52057;SDS011;38063;53.210;6.504;2023-08-31T11:49:59;3.10;;;0.60;;
52057;SDS011;38063;53.210;6.504;2023-08-31T11:52:30;5.60;;;0.70;;
52057;SDS011;38063;53.210;6.504;2023-08-31T11:54:56;3.28;;;0.70;;
52057;SDS011;38063;53.210;6.504;2023-08-31T11:57:25;4.13;;;1.10;;
52057;SDS011;38063;53.210;6.504;2023-08-31T11:59:51;4.50;;;0.90;;
52057;SDS011;38063;53.210;6.504;2023-08-31T12:02:20;2.45;;;0.85;;
52057;SDS011;38063;53.210;6.504;2023-08-31T12:04:46;2.80;;;0.70;;
52057;SDS011;38063;53.210;6.504;2023-08-31T12:07:17;3.33;;;1.00;;
52057;SDS011;38063;53.210;6.504;2023-08-31T12:09:43;6.38;;;1.13;;
52057;SDS011;38063;53.210;6.504;2023-08-31T12:12:10;2.17;;;0.80;;
52057;SDS011;38063;53.210;6.504;2023-08-31T12:14:38;1.73;;;0.70;;
52057;SDS011;38063;53.210;6.504;2023-08-31T12:17:05;2.13;;;0.82;;
52057;SDS011;38063;53.210;6.504;2023-08-31T12:19:32;4.25;;;0.95;;
52057;SDS011;38063;53.210;6.504;2023-08-31T12:22:01;3.17;;;0.60;;
52057;SDS011;38063;53.210;6.504;2023-08-31T12:24:26;4.88;;;1.23;;
52057;SDS011;38063;53.210;6.504;2023-08-31T12:26:53;3.70;;;0.90;;
52057;SDS011;38063;53.210;6.504;2023-08-31T12:29:19;1.95;;;0.70;;
52057;SDS011;38063;53.210;6.504;2023-08-31T12:31:46;5.18;;;1.10;;
52057;SDS011;38063;53.210;6.504;2023-08-31T12:34:11;4.15;;;1.10;;
52057;SDS011;38063;53.210;6.504;2023-08-31T12:36:37;4.78;;;1.00;;
52057;SDS011;38063;53.210;6.504;2023-08-31T12:39:05;3.72;;;0.70;;
52057;SDS011;38063;53.210;6.504;2023-08-31T12:41:36;6.45;;;1.40;;
52057;SDS011;38063;53.210;6.504;2023-08-31T12:44:02;4.35;;;1.10;;
52057;SDS011;38063;53.210;6.504;2023-08-31T12:46:28;3.25;;;0.80;;
52057;SDS011;38063;53.210;6.504;2023-08-31T12:48:54;2.35;;;0.80;;
52057;SDS011;38063;53.210;6.504;2023-08-31T12:51:20;4.65;;;1.05;;
52057;SDS011;38063;53.210;6.504;2023-08-31T12:53:46;4.15;;;1.20;;
52057;SDS011;38063;53.210;6.504;2023-08-31T12:56:12;2.45;;;0.77;;
52057;SDS011;38063;53.210;6.504;2023-08-31T12:58:38;2.03;;;0.60;;
52057;SDS011;38063;53.210;6.504;2023-08-31T13:01:04;4.55;;;1.10;;
52057;SDS011;38063;53.210;6.504;2023-08-31T13:03:30;1.73;;;0.80;;
52057;SDS011;38063;53.210;6.504;2023-08-31T13:05:56;3.33;;;0.98;;
52057;SDS011;38063;53.210;6.504;2023-08-31T13:08:22;2.55;;;0.68;;
52057;SDS011;38063;53.210;6.504;2023-08-31T13:10:52;4.97;;;0.70;;
52057;SDS011;38063;53.210;6.504;2023-08-31T13:13:18;3.75;;;0.82;;
52057;SDS011;38063;53.210;6.504;2023-08-31T13:15:47;4.38;;;0.98;;
52057;SDS011;38063;53.210;6.504;2023-08-31T13:18:13;3.20;;;1.02;;
52057;SDS011;38063;53.210;6.504;2023-08-31T13:20:39;3.35;;;0.80;;
52057;SDS011;38063;53.210;6.504;2023-08-31T13:23:06;3.55;;;1.10;;
52057;SDS011;38063;53.210;6.504;2023-08-31T13:25:32;2.78;;;1.00;;
52057;SDS011;38063;53.210;6.504;2023-08-31T13:27:57;4.43;;;0.85;;
52057;SDS011;38063;53.210;6.504;2023-08-31T13:30:23;4.00;;;0.95;;
52057;SDS011;38063;53.210;6.504;2023-08-31T13:32:49;3.95;;;0.98;;
52057;SDS011;38063;53.210;6.504;2023-08-31T13:35:15;6.38;;;1.33;;
52057;SDS011;38063;53.210;6.504;2023-08-31T13:37:41;9.10;;;1.63;;
52057;SDS011;38063;53.210;6.504;2023-08-31T13:40:07;2.28;;;0.88;;
52057;SDS011;38063;53.210;6.504;2023-08-31T13:42:34;3.70;;;0.90;;
52057;SDS011;38063;53.210;6.504;2023-08-31T13:45:05;3.10;;;0.80;;
52057;SDS011;38063;53.210;6.504;2023-08-31T13:47:32;4.85;;;0.90;;
52057;SDS011;38063;53.210;6.504;2023-08-31T13:49:58;1.92;;;0.88;;
52057;SDS011;38063;53.210;6.504;2023-08-31T13:52:24;3.53;;;0.85;;
52057;SDS011;38063;53.210;6.504;2023-08-31T13:54:49;3.63;;;0.80;;
52057;SDS011;38063;53.210;6.504;2023-08-31T13:57:15;6.53;;;1.10;;
52057;SDS011;38063;53.210;6.504;2023-08-31T13:59:43;2.67;;;0.77;;
52057;SDS011;38063;53.210;6.504;2023-08-31T14:02:09;6.53;;;1.10;;
52057;SDS011;38063;53.210;6.504;2023-08-31T14:04:34;4.28;;;1.00;;
52057;SDS011;38063;53.210;6.504;2023-08-31T14:07:00;3.17;;;1.00;;
52057;SDS011;38063;53.210;6.504;2023-08-31T14:09:26;6.85;;;1.33;;
52057;SDS011;38063;53.210;6.504;2023-08-31T14:11:52;4.63;;;1.30;;
52057;SDS011;38063;53.210;6.504;2023-08-31T14:14:20;4.93;;;1.45;;
52057;SDS011;38063;53.210;6.504;2023-08-31T14:16:47;7.97;;;1.55;;
52057;SDS011;38063;53.210;6.504;2023-08-31T14:19:13;6.40;;;1.25;;
52057;SDS011;38063;53.210;6.504;2023-08-31T14:21:39;2.55;;;1.02;;
52057;SDS011;38063;53.210;6.504;2023-08-31T14:24:04;4.07;;;1.02;;
52057;SDS011;38063;53.210;6.504;2023-08-31T14:26:31;5.28;;;0.80;;
52057;SDS011;38063;53.210;6.504;2023-08-31T14:28:56;7.72;;;1.20;;
52057;SDS011;38063;53.210;6.504;2023-08-31T14:31:22;4.75;;;1.20;;
52057;SDS011;38063;53.210;6.504;2023-08-31T14:33:48;5.65;;;1.30;;
52057;SDS011;38063;53.210;6.504;2023-08-31T14:36:15;5.40;;;1.13;;
52057;SDS011;38063;53.210;6.504;2023-08-31T14:38:43;7.78;;;1.45;;
52057;SDS011;38063;53.210;6.504;2023-08-31T14:41:10;4.95;;;1.30;;
52057;SDS011;38063;53.210;6.504;2023-08-31T14:43:36;3.28;;;1.00;;
52057;SDS011;38063;53.210;6.504;2023-08-31T14:46:02;4.72;;;1.10;;
52057;SDS011;38063;53.210;6.504;2023-08-31T14:48:29;5.18;;;1.00;;
52057;SDS011;38063;53.210;6.504;2023-08-31T14:50:56;4.68;;;1.20;;
52057;SDS011;38063;53.210;6.504;2023-08-31T14:53:24;5.10;;;1.23;;
52057;SDS011;38063;53.210;6.504;2023-08-31T14:55:50;4.30;;;1.27;;
52057;SDS011;38063;53.210;6.504;2023-08-31T14:58:16;3.20;;;0.93;;
52057;SDS011;38063;53.210;6.504;2023-08-31T15:00:42;4.63;;;1.00;;